Time;durP1;ratioP1;P1;durP2;ratioP2;P2;SDS_P1;SDS_P2;PMS_P1;PMS_P2;Temp;Humidity;BMP_temperature;BMP_pressure;BME280_temperature;BME280_humidity;BME280_pressure;Samples;Min_cycle;Max_cycle;Signal;HPM_P1;HPM_P2
2022/03/14 00:01:04;;;;;;;9.32;5.97;;;10.40;72.80;;;;;;5052387;28;20071;-55
2022/03/14 00:03:32;;;;;;;9.48;5.82;;;10.40;73.10;;;;;;5050925;28;20219;-55
2022/03/14 00:05:57;;;;;;;8.02;5.47;;;10.40;73.50;;;;;;5051335;28;20032;-54
2022/03/14 00:08:24;;;;;;;8.65;5.47;;;10.40;73.70;;;;;;5051629;28;20036;-56
2022/03/14 00:10:51;;;;;;;7.03;5.10;;;10.40;74.00;;;;;;5081108;28;20076;-54
2022/03/14 00:13:18;;;;;;;7.20;4.80;;;10.40;74.50;;;;;;5046274;28;20099;-55
2022/03/14 00:15:43;;;;;;;8.70;4.82;;;10.50;74.30;;;;;;5044562;28;20049;-57
2022/03/14 00:18:10;;;;;;;8.02;4.80;;;10.50;74.60;;;;;;5045571;28;20115;-54
2022/03/14 00:20:36;;;;;;;7.10;4.80;;;10.50;74.60;;;;;;5040469;28;20084;-55
2022/03/14 00:23:01;;;;;;;11.75;4.90;;;10.50;74.80;;;;;;5051203;28;20025;-54
2022/03/14 00:25:28;;;;;;;5.85;3.92;;;10.60;75.20;;;;;;5083807;28;20095;-56
2022/03/14 00:27:54;;;;;;;6.80;4.50;;;10.60;75.50;;;;;;5050601;28;20029;-55
2022/03/14 00:30:20;;;;;;;6.32;3.80;;;10.60;75.70;;;;;;5051530;28;20045;-55
2022/03/14 00:32:46;;;;;;;6.18;4.35;;;10.60;76.10;;;;;;5051130;28;20322;-55
2022/03/14 00:35:12;;;;;;;9.68;4.20;;;10.60;76.20;;;;;;5051555;28;20052;-56
2022/03/14 00:37:38;;;;;;;6.47;4.20;;;10.70;76.20;;;;;;5050472;28;20417;-54
2022/03/14 00:40:07;;;;;;;8.30;4.43;;;10.70;76.40;;;;;;5051404;28;20037;-54
2022/03/14 00:42:33;;;;;;;8.20;4.22;;;10.70;76.70;;;;;;5051155;28;20029;-56
2022/03/14 00:44:59;;;;;;;6.38;4.32;;;10.70;76.80;;;;;;5051507;28;20045;-54
2022/03/14 00:47:24;;;;;;;5.57;4.13;;;10.60;76.70;;;;;;5050591;28;20094;-54
2022/03/14 00:49:50;;;;;;;7.10;4.60;;;10.60;77.00;;;;;;5050812;28;20132;-54
2022/03/14 00:52:18;;;;;;;6.60;4.43;;;10.70;77.40;;;;;;5051228;28;20025;-56
2022/03/14 00:54:45;;;;;;;7.85;4.40;;;10.70;77.70;;;;;;5083120;28;20041;-54
2022/03/14 00:57:11;;;;;;;6.95;4.15;;;10.70;78.00;;;;;;5050787;28;20508;-54
2022/03/14 00:59:39;;;;;;;6.00;3.75;;;10.70;78.00;;;;;;5050674;28;20041;-54
2022/03/14 01:02:05;;;;;;;6.13;4.10;;;10.70;78.20;;;;;;5050926;28;20489;-55
2022/03/14 01:04:31;;;;;;;5.57;4.03;;;10.70;78.30;;;;;;5051057;28;20048;-56
2022/03/14 01:06:56;;;;;;;6.43;3.67;;;10.70;78.20;;;;;;5050953;28;20492;-55
2022/03/14 01:09:22;;;;;;;6.03;4.00;;;10.80;78.10;;;;;;5050969;28;20037;-53
2022/03/14 01:11:48;;;;;;;5.35;3.83;;;10.70;78.00;;;;;;5051483;28;20029;-57
2022/03/14 01:14:14;;;;;;;6.03;4.00;;;10.80;78.80;;;;;;5050636;28;20045;-54
2022/03/14 01:16:40;;;;;;;7.25;4.32;;;10.80;79.30;;;;;;5050614;28;20469;-55
2022/03/14 01:19:07;;;;;;;5.47;3.60;;;10.70;79.50;;;;;;5049360;28;20489;-54
2022/03/14 01:21:32;;;;;;;6.15;4.05;;;10.70;79.90;;;;;;5050909;28;20033;-55
2022/03/14 01:23:58;;;;;;;6.43;4.57;;;10.70;80.40;;;;;;5050741;28;20128;-54
2022/03/14 01:26:24;;;;;;;7.80;4.18;;;10.70;80.50;;;;;;5050466;28;20095;-56
2022/03/14 01:28:50;;;;;;;7.18;4.47;;;10.70;80.70;;;;;;5050197;28;20086;-55
2022/03/14 01:31:15;;;;;;;5.65;4.03;;;10.60;80.90;;;;;;5050881;28;20428;-54
2022/03/14 01:33:41;;;;;;;5.10;3.60;;;10.60;81.50;;;;;;5050551;28;20405;-54
2022/03/14 01:36:07;;;;;;;6.50;4.15;;;10.50;81.30;;;;;;5050615;28;20041;-57
2022/03/14 01:38:32;;;;;;;5.78;4.18;;;10.50;81.30;;;;;;5051084;28;20029;-54
2022/03/14 01:40:58;;;;;;;6.55;3.92;;;10.50;81.50;;;;;;5054819;28;20036;-54
2022/03/14 01:43:26;;;;;;;6.50;4.40;;;10.50;81.40;;;;;;5053887;28;20531;-53
2022/03/14 01:45:58;;;;;;;6.10;3.80;;;10.50;81.80;;;;;;5046927;28;20037;-50
2022/03/14 01:48:24;;;;;;;7.68;3.90;;;10.50;81.60;;;;;;5054159;28;20036;-50
2022/03/14 01:50:51;;;;;;;6.10;4.13;;;10.50;81.60;;;;;;5054280;28;20041;-53
2022/03/14 01:53:18;;;;;;;6.15;3.95;;;10.50;81.50;;;;;;5054723;28;20039;-50
2022/03/14 01:55:45;;;;;;;7.18;3.60;;;10.50;81.50;;;;;;5054120;28;20467;-51
2022/03/14 01:58:11;;;;;;;4.97;3.83;;;10.50;81.70;;;;;;5049581;28;20090;-51
2022/03/14 02:00:37;;;;;;;5.40;3.75;;;10.50;81.70;;;;;;5052820;28;20040;-50
2022/03/14 02:03:02;;;;;;;6.10;4.05;;;10.60;82.10;;;;;;5054591;28;20033;-52
2022/03/14 02:05:28;;;;;;;6.22;4.35;;;10.50;81.80;;;;;;5053775;28;20044;-51
2022/03/14 02:07:56;;;;;;;5.05;3.90;;;10.50;82.10;;;;;;5054008;28;20123;-50
2022/03/14 02:10:22;;;;;;;6.45;4.50;;;10.50;82.30;;;;;;5054068;28;20037;-51
2022/03/14 02:12:48;;;;;;;6.15;4.10;;;10.50;82.40;;;;;;5053724;28;20119;-51
2022/03/14 02:15:13;;;;;;;6.93;4.20;;;10.40;82.30;;;;;;5054135;28;20029;-50
2022/03/14 02:17:39;;;;;;;6.88;4.03;;;10.40;82.40;;;;;;5053662;28;20037;-51
2022/03/14 02:20:05;;;;;;;7.75;4.22;;;10.40;82.50;;;;;;5053627;28;20040;-50
2022/03/14 02:22:30;;;;;;;5.07;3.75;;;10.40;82.70;;;;;;5054078;28;20409;-50
2022/03/14 02:24:56;;;;;;;5.40;3.88;;;10.50;83.00;;;;;;5053280;28;20036;-51
2022/03/14 02:27:22;;;;;;;7.13;3.72;;;10.50;82.60;;;;;;5053918;28;20036;-52
2022/03/14 02:29:47;;;;;;;6.05;3.85;;;10.50;82.70;;;;;;5053761;28;20544;-52
2022/03/14 02:32:13;;;;;;;5.10;3.70;;;10.50;82.60;;;;;;5053432;28;20116;-51
2022/03/14 02:34:40;;;;;;;4.80;3.40;;;10.50;82.50;;;;;;5053681;28;20430;-50
2022/03/14 02:37:06;;;;;;;6.57;3.45;;;10.50;82.40;;;;;;5053229;28;20508;-52
2022/03/14 02:39:32;;;;;;;5.63;3.58;;;10.50;82.50;;;;;;5053570;28;20099;-50
2022/03/14 02:42:01;;;;;;;5.45;3.70;;;10.60;82.60;;;;;;5053549;28;20080;-51
2022/03/14 02:44:28;;;;;;;6.97;3.65;;;10.60;82.60;;;;;;5053561;28;20052;-51
2022/03/14 02:46:54;;;;;;;6.75;3.70;;;10.60;82.50;;;;;;5053098;28;20036;-51
2022/03/14 02:49:19;;;;;;;5.13;3.72;;;10.60;82.70;;;;;;5053077;28;20378;-50
2022/03/14 02:51:46;;;;;;;5.70;4.03;;;10.60;82.60;;;;;;5052880;28;20043;-51
2022/03/14 02:54:12;;;;;;;6.35;3.50;;;10.60;82.70;;;;;;5053115;28;20036;-51
2022/03/14 02:56:38;;;;;;;5.80;4.00;;;10.60;82.70;;;;;;5053094;28;20051;-50
2022/03/14 02:59:05;;;;;;;5.03;3.63;;;10.60;82.90;;;;;;5053438;28;20041;-50
2022/03/14 03:01:31;;;;;;;6.03;3.65;;;10.60;83.10;;;;;;5051194;28;20476;-50
2022/03/14 03:03:57;;;;;;;5.15;3.40;;;10.60;83.50;;;;;;5051923;28;20041;-51
2022/03/14 03:06:22;;;;;;;5.78;3.78;;;10.60;83.40;;;;;;5052825;28;20108;-51
2022/03/14 03:08:49;;;;;;;5.78;3.83;;;10.70;83.90;;;;;;5051121;28;20110;-50
2022/03/14 03:11:15;;;;;;;6.03;3.83;;;10.60;83.50;;;;;;5052719;28;20037;-52
2022/03/14 03:13:41;;;;;;;6.05;3.83;;;10.60;83.80;;;;;;5053002;28;20041;-50
2022/03/14 03:16:08;;;;;;;5.72;3.83;;;10.60;83.80;;;;;;5052586;28;20143;-50
2022/03/14 03:18:35;;;;;;;4.82;3.60;;;10.60;83.90;;;;;;5052881;28;20033;-51
2022/03/14 03:21:00;;;;;;;5.05;3.63;;;10.50;83.80;;;;;;5052959;28;20416;-50
2022/03/14 03:23:26;;;;;;;5.50;3.80;;;10.60;84.30;;;;;;5052598;28;20043;-52
2022/03/14 03:25:51;;;;;;;5.53;3.58;;;10.60;84.20;;;;;;5052651;28;20073;-51
2022/03/14 03:28:17;;;;;;;6.90;3.97;;;10.50;84.00;;;;;;5052777;28;20116;-54
2022/03/14 03:30:42;;;;;;;5.25;3.78;;;10.50;83.90;;;;;;5052235;28;20098;-50
2022/03/14 03:33:08;;;;;;;7.57;3.60;;;10.50;84.30;;;;;;5052668;28;20574;-51
2022/03/14 03:35:34;;;;;;;5.90;3.83;;;10.50;84.10;;;;;;5052868;28;20068;-51
2022/03/14 03:38:00;;;;;;;5.40;3.78;;;10.40;84.30;;;;;;5052585;28;20724;-54
2022/03/14 03:40:26;;;;;;;4.80;3.35;;;10.40;84.60;;;;;;5052547;28;20119;-50
2022/03/14 03:42:51;;;;;;;5.82;3.80;;;10.40;84.60;;;;;;5034392;28;20132;-51
2022/03/14 03:45:18;;;;;;;6.10;3.60;;;10.40;84.60;;;;;;5052359;28;20033;-51
2022/03/14 03:47:44;;;;;;;4.60;3.25;;;10.40;84.70;;;;;;5050120;28;20036;-53
2022/03/14 03:50:10;;;;;;;5.78;3.33;;;10.30;84.60;;;;;;5047429;28;20103;-52
2022/03/14 03:52:36;;;;;;;4.68;3.30;;;10.30;84.60;;;;;;5051857;28;20036;-54
2022/03/14 03:55:02;;;;;;;5.38;3.47;;;10.30;84.70;;;;;;5052118;28;20045;-54
2022/03/14 03:57:28;;;;;;;5.35;3.50;;;10.30;84.70;;;;;;5052143;28;20413;-54
2022/03/14 03:59:53;;;;;;;4.82;3.30;;;10.30;84.90;;;;;;5052545;28;20048;-52
2022/03/14 04:02:19;;;;;;;5.55;3.55;;;10.20;84.90;;;;;;5051687;28;20726;-53
2022/03/14 04:04:49;;;;;;;7.47;3.50;;;10.20;85.20;;;;;;5053178;28;20052;-52
2022/03/14 04:07:23;;;;;;;4.72;3.22;;;10.20;85.50;;;;;;5051642;28;20040;-52
2022/03/14 04:09:55;;;;;;;6.30;3.30;;;10.10;85.40;;;;;;5050604;28;20090;-50
2022/03/14 04:12:23;;;;;;;6.47;3.55;;;10.10;85.50;;;;;;5051872;28;20040;-54
2022/03/14 04:14:48;;;;;;;5.38;3.30;;;10.10;85.80;;;;;;5052033;28;20041;-56
2022/03/14 04:17:14;;;;;;;4.95;3.47;;;10.10;86.00;;;;;;5051337;28;20044;-51
2022/03/14 04:19:41;;;;;;;5.00;3.38;;;10.10;85.90;;;;;;5042377;28;20460;-55
2022/03/14 04:22:07;;;;;;;5.93;3.20;;;10.00;86.00;;;;;;5051974;28;20049;-55
2022/03/14 04:24:35;;;;;;;4.55;3.22;;;10.10;86.20;;;;;;5051702;28;20052;-56
2022/03/14 04:27:01;;;;;;;4.78;3.22;;;10.10;86.30;;;;;;5051165;28;20040;-54
2022/03/14 04:29:28;;;;;;;5.35;3.30;;;10.10;86.20;;;;;;5051191;28;20032;-56
2022/03/14 04:31:53;;;;;;;4.68;3.30;;;10.10;86.20;;;;;;5051658;28;20033;-54
2022/03/14 04:34:19;;;;;;;5.53;3.47;;;10.10;86.40;;;;;;5051471;28;20132;-54
2022/03/14 04:36:44;;;;;;;5.57;3.50;;;10.10;86.40;;;;;;5051438;28;20048;-50
2022/03/14 04:39:10;;;;;;;4.72;3.10;;;10.10;86.50;;;;;;5051524;28;20512;-50
2022/03/14 04:41:37;;;;;;;4.40;3.20;;;10.10;86.70;;;;;;5051423;28;20037;-52
2022/03/14 04:44:04;;;;;;;5.20;3.38;;;10.10;87.00;;;;;;5051640;28;20047;-54
2022/03/14 04:46:30;;;;;;;4.50;3.22;;;10.10;87.10;;;;;;5050245;28;20033;-56
2022/03/14 04:48:55;;;;;;;5.15;3.33;;;10.10;87.40;;;;;;5050624;28;20507;-55
2022/03/14 04:51:21;;;;;;;4.72;3.15;;;10.10;87.70;;;;;;5051970;28;20243;-51
2022/03/14 04:53:46;;;;;;;5.53;3.17;;;10.10;87.80;;;;;;5048468;28;20566;-52
2022/03/14 04:56:12;;;;;;;5.97;3.45;;;10.10;87.80;;;;;;5050297;28;20409;-52
2022/03/14 04:58:37;;;;;;;4.93;3.53;;;10.10;88.00;;;;;;5049570;28;20066;-50
2022/03/14 05:01:03;;;;;;;4.47;3.10;;;10.10;88.40;;;;;;5056483;28;20033;-57
2022/03/14 05:03:28;;;;;;;4.85;3.40;;;10.10;88.20;;;;;;5050967;28;20039;-54
2022/03/14 05:05:54;;;;;;;5.60;3.65;;;10.00;88.60;;;;;;5051274;28;20033;-56
2022/03/14 05:08:20;;;;;;;6.75;3.60;;;10.10;88.90;;;;;;5051126;28;20454;-54
2022/03/14 05:10:46;;;;;;;4.60;3.15;;;10.10;89.00;;;;;;5051213;28;20037;-56
2022/03/14 05:13:11;;;;;;;5.57;3.80;;;10.00;89.30;;;;;;5050478;28;20443;-56
2022/03/14 05:15:38;;;;;;;5.25;3.72;;;10.00;90.00;;;;;;5051222;28;20116;-53
2022/03/14 05:18:03;;;;;;;5.90;3.88;;;10.00;90.20;;;;;;5050310;28;20400;-56
2022/03/14 05:20:29;;;;;;;6.20;4.15;;;10.00;90.40;;;;;;5050861;28;20064;-56
2022/03/14 05:22:55;;;;;;;6.32;4.10;;;9.90;90.30;;;;;;5051126;28;20144;-53
2022/03/14 05:25:22;;;;;;;5.18;3.65;;;9.90;90.60;;;;;;5050917;28;20044;-55
2022/03/14 05:27:48;;;;;;;5.65;4.38;;;9.90;90.70;;;;;;5050834;28;20382;-53
2022/03/14 05:30:15;;;;;;;6.30;4.30;;;9.90;90.90;;;;;;5049350;28;20094;-55
2022/03/14 05:32:42;;;;;;;5.65;4.00;;;9.90;91.20;;;;;;5050953;28;20509;-56
2022/03/14 05:35:11;;;;;;;7.45;4.50;;;9.90;91.30;;;;;;5049216;28;20049;-54
2022/03/14 05:37:37;;;;;;;6.07;4.40;;;9.80;91.30;;;;;;5041039;28;20552;-54
2022/03/14 05:40:04;;;;;;;5.93;4.25;;;9.80;91.60;;;;;;5038811;28;20156;-54
2022/03/14 05:42:29;;;;;;;5.75;4.10;;;9.80;91.70;;;;;;5051062;28;20397;-53
2022/03/14 05:44:55;;;;;;;7.55;4.63;;;9.80;92.10;;;;;;5046665;28;20037;-54
2022/03/14 05:47:20;;;;;;;7.07;4.68;;;9.90;92.80;;;;;;5038078;28;20044;-50
2022/03/14 05:49:46;;;;;;;6.93;4.30;;;9.80;92.40;;;;;;5044289;28;20036;-50
2022/03/14 05:52:13;;;;;;;6.35;4.60;;;9.80;93.00;;;;;;5049784;28;20055;-51
2022/03/14 05:54:39;;;;;;;6.30;4.38;;;9.80;92.90;;;;;;5083223;28;20072;-51
2022/03/14 05:57:05;;;;;;;6.13;4.80;;;9.80;93.50;;;;;;5049461;28;20077;-51
2022/03/14 05:59:31;;;;;;;8.38;4.40;;;9.80;93.60;;;;;;5043056;28;20083;-50
2022/03/14 06:01:56;;;;;;;7.80;4.93;;;9.70;93.80;;;;;;5037909;28;20455;-50
2022/03/14 06:04:23;;;;;;;7.38;4.40;;;9.70;94.10;;;;;;5043388;28;20103;-52
2022/03/14 06:06:49;;;;;;;6.70;4.53;;;9.70;94.00;;;;;;5060662;28;20490;-50
2022/03/14 06:09:14;;;;;;;7.82;4.97;;;9.70;94.20;;;;;;5037793;28;20374;-50
2022/03/14 06:11:41;;;;;;;6.65;4.55;;;9.70;94.70;;;;;;5046617;28;20051;-51
2022/03/14 06:14:07;;;;;;;7.20;5.03;;;9.70;94.80;;;;;;5050487;28;20045;-51
2022/03/14 06:16:33;;;;;;;6.38;4.53;;;9.70;95.30;;;;;;5036877;28;20041;-51
2022/03/14 06:18:58;;;;;;;6.85;4.80;;;9.70;95.40;;;;;;5042903;28;20111;-51
2022/03/14 06:21:24;;;;;;;8.52;4.75;;;9.70;95.70;;;;;;5043329;28;20040;-51
2022/03/14 06:23:50;;;;;;;6.70;4.88;;;9.70;95.80;;;;;;5042858;28;20045;-50
2022/03/14 06:26:17;;;;;;;7.25;5.10;;;9.60;96.20;;;;;;5040177;28;20037;-51
2022/03/14 06:28:43;;;;;;;7.57;5.20;;;9.60;96.20;;;;;;5035182;28;20041;-54
2022/03/14 06:31:11;;;;;;;7.05;4.68;;;9.60;96.80;;;;;;5032879;28;20072;-51
2022/03/14 06:33:37;;;;;;;7.20;4.93;;;9.60;97.00;;;;;;5038415;28;20160;-51
2022/03/14 06:36:03;;;;;;;8.27;5.57;;;9.60;97.20;;;;;;5053747;28;20496;-51
2022/03/14 06:38:28;;;;;;;7.88;5.53;;;9.60;97.50;;;;;;5053019;28;20048;-50
2022/03/14 06:40:56;;;;;;;7.03;5.30;;;9.60;97.70;;;;;;5049684;28;20049;-50
2022/03/14 06:43:22;;;;;;;9.80;6.00;;;9.60;97.90;;;;;;5051130;28;20040;-51
2022/03/14 06:45:48;;;;;;;8.05;5.72;;;9.60;98.00;;;;;;5053275;28;20041;-53
2022/03/14 06:48:13;;;;;;;6.72;4.93;;;9.60;98.20;;;;;;5053334;28;20029;-51
2022/03/14 06:50:39;;;;;;;8.43;5.60;;;9.60;98.40;;;;;;5052956;28;20492;-50
2022/03/14 06:53:05;;;;;;;8.65;5.93;;;9.60;98.50;;;;;;5052773;28;20033;-50
2022/03/14 06:55:31;;;;;;;7.60;5.68;;;9.60;98.80;;;;;;5052449;28;20049;-50
2022/03/14 06:57:57;;;;;;;7.05;5.35;;;9.60;99.10;;;;;;5053604;28;20037;-50
2022/03/14 07:00:23;;;;;;;7.10;5.00;;;9.60;99.10;;;;;;5050781;28;20041;-50
2022/03/14 07:02:49;;;;;;;9.18;5.78;;;9.60;99.50;;;;;;5044092;28;20037;-50
2022/03/14 07:05:20;;;;;;;8.70;5.68;;;9.60;99.70;;;;;;5053757;28;20036;-50
2022/03/14 07:07:46;;;;;;;8.32;6.10;;;9.60;99.50;;;;;;5035902;28;20074;-51
2022/03/14 07:10:13;;;;;;;9.57;6.03;;;9.60;99.70;;;;;;5034653;28;20041;-50
2022/03/14 07:12:46;;;;;;;7.28;5.43;;;9.70;99.90;;;;;;5053579;28;20048;-51
2022/03/14 07:15:19;;;;;;;8.07;5.60;;;9.70;99.90;;;;;;5052273;28;20049;-52
2022/03/14 07:17:45;;;;;;;8.23;6.07;;;9.70;99.90;;;;;;5053429;28;20045;-50
2022/03/14 07:20:11;;;;;;;8.55;6.30;;;9.60;99.90;;;;;;5051416;28;20081;-50
2022/03/14 07:22:50;;;;;;;9.48;6.65;;;9.70;99.90;;;;;;5052979;28;20497;-50
2022/03/14 07:25:20;;;;;;;8.55;5.70;;;9.70;99.90;;;;;;5053076;28;20099;-50
2022/03/14 07:27:46;;;;;;;8.20;6.43;;;9.70;99.90;;;;;;5044802;28;20075;-52
2022/03/14 07:30:13;;;;;;;8.48;5.97;;;9.70;99.90;;;;;;5047099;28;20393;-50
2022/03/14 07:32:39;;;;;;;9.55;6.43;;;9.70;99.90;;;;;;5048640;28;20568;-52
2022/03/14 07:35:05;;;;;;;9.25;6.55;;;9.60;99.90;;;;;;5049124;28;20416;-51
2022/03/14 07:37:30;;;;;;;9.10;6.68;;;9.60;99.90;;;;;;5040944;28;20037;-52
2022/03/14 07:39:56;;;;;;;8.90;6.22;;;9.60;99.90;;;;;;5044106;28;20128;-51
2022/03/14 07:42:21;;;;;;;9.30;7.07;;;9.70;99.90;;;;;;5047593;28;20453;-50
2022/03/14 07:44:48;;;;;;;9.35;7.07;;;9.70;99.90;;;;;;5042207;28;20488;-52
2022/03/14 07:47:19;;;;;;;10.98;6.57;;;9.70;99.90;;;;;;5071986;28;20105;-54
2022/03/14 07:49:45;;;;;;;8.82;6.13;;;9.70;99.90;;;;;;5032748;28;20040;-51
2022/03/14 07:52:11;;;;;;;9.70;7.32;;;9.60;99.90;;;;;;5049376;28;20033;-50
2022/03/14 07:54:37;;;;;;;9.68;6.30;;;9.70;99.90;;;;;;5042254;28;20474;-49
2022/03/14 07:57:02;;;;;;;11.18;7.70;;;9.70;99.90;;;;;;5045217;28;20487;-49
2022/03/14 07:59:28;;;;;;;10.85;7.53;;;9.70;99.90;;;;;;5042255;28;20051;-54
2022/03/14 08:01:53;;;;;;;11.73;7.60;;;9.60;99.90;;;;;;5047368;28;20081;-52
2022/03/14 08:04:19;;;;;;;12.70;7.60;;;9.60;99.90;;;;;;5045396;28;20051;-51
2022/03/14 08:06:45;;;;;;;12.18;7.40;;;9.60;99.90;;;;;;5039608;28;20065;-50
2022/03/14 08:09:11;;;;;;;10.43;7.70;;;9.60;99.90;;;;;;5047871;28;20446;-53
2022/03/14 08:11:41;;;;;;;10.48;7.22;;;9.50;99.90;;;;;;5022708;28;20036;-50
2022/03/14 08:14:07;;;;;;;10.43;7.80;;;9.60;99.90;;;;;;5046739;28;20059;-50
2022/03/14 08:16:33;;;;;;;12.95;8.57;;;9.50;99.90;;;;;;5048314;28;20484;-57
2022/03/14 08:18:59;;;;;;;11.95;8.45;;;9.50;99.90;;;;;;5065052;28;20033;-50
2022/03/14 08:21:25;;;;;;;12.77;8.98;;;9.50;99.90;;;;;;5050469;28;20427;-54
2022/03/14 08:23:51;;;;;;;18.42;10.98;;;9.50;99.90;;;;;;5038833;28;20120;-50
2022/03/14 08:26:17;;;;;;;15.60;11.52;;;9.60;99.90;;;;;;5035690;28;20029;-52
2022/03/14 08:28:44;;;;;;;19.85;13.40;;;9.50;99.90;;;;;;5035160;28;20036;-50
2022/03/14 08:31:15;;;;;;;18.90;13.50;;;9.40;99.90;;;;;;5045905;28;20546;-50
2022/03/14 08:33:41;;;;;;;20.05;14.23;;;9.50;99.90;;;;;;5035082;28;20401;-53
2022/03/14 08:36:08;;;;;;;23.25;14.50;;;9.50;99.90;;;;;;5036395;28;20493;-53
2022/03/14 08:38:34;;;;;;;21.25;15.13;;;9.50;99.90;;;;;;5052193;28;20068;-52
2022/03/14 08:41:00;;;;;;;20.35;15.05;;;9.50;99.90;;;;;;5051896;28;20519;-53
2022/03/14 08:43:25;;;;;;;22.80;15.13;;;9.40;99.90;;;;;;5052033;28;20124;-53
2022/03/14 08:45:51;;;;;;;18.05;12.75;;;9.50;99.90;;;;;;5051769;28;20083;-53
2022/03/14 08:48:17;;;;;;;17.63;12.13;;;9.50;99.90;;;;;;5050980;28;20143;-53
2022/03/14 08:50:42;;;;;;;15.57;10.23;;;9.50;99.90;;;;;;5050847;28;20091;-52
2022/03/14 08:53:08;;;;;;;17.20;11.52;;;9.40;99.90;;;;;;5051903;28;20047;-52
2022/03/14 08:55:34;;;;;;;17.63;11.43;;;9.40;99.90;;;;;;5051745;28;20493;-55
2022/03/14 08:58:00;;;;;;;18.73;12.13;;;9.40;99.90;;;;;;5050196;28;20048;-50
2022/03/14 09:00:27;;;;;;;20.40;13.35;;;9.30;99.90;;;;;;5051555;28;20090;-49
2022/03/14 09:02:54;;;;;;;22.85;13.52;;;9.30;99.90;;;;;;5050227;28;20170;-51
2022/03/14 09:05:20;;;;;;;23.17;14.43;;;9.20;99.90;;;;;;5051466;28;20040;-50
2022/03/14 09:07:47;;;;;;;25.17;13.82;;;9.20;99.90;;;;;;5051415;28;20500;-49
2022/03/14 09:10:14;;;;;;;21.25;14.35;;;9.20;99.90;;;;;;5033818;28;20044;-49
2022/03/14 09:12:40;;;;;;;21.15;13.90;;;9.20;99.90;;;;;;5051787;28;20047;-49
2022/03/14 09:15:08;;;;;;;23.85;14.38;;;9.20;99.90;;;;;;5051214;28;20493;-52
2022/03/14 09:17:35;;;;;;;23.70;14.20;;;9.20;99.90;;;;;;5051461;28;20494;-52
2022/03/14 09:20:01;;;;;;;25.65;15.00;;;9.20;99.90;;;;;;5047009;28;20042;-49
2022/03/14 09:22:28;;;;;;;21.35;13.88;;;9.20;99.90;;;;;;5046328;28;20477;-49
2022/03/14 09:24:55;;;;;;;25.10;14.25;;;9.20;99.90;;;;;;5051364;28;20037;-50
2022/03/14 09:27:23;;;;;;;25.00;13.93;;;9.20;99.90;;;;;;5051650;28;20051;-49
2022/03/14 09:29:50;;;;;;;28.83;14.40;;;9.20;99.90;;;;;;5051447;28;20041;-49
2022/03/14 09:32:16;;;;;;;18.83;11.85;;;9.20;99.90;;;;;;5050383;28;20048;-49
2022/03/14 09:34:42;;;;;;;21.67;11.10;;;9.20;99.90;;;;;;5051865;28;20107;-49
2022/03/14 09:37:08;;;;;;;20.50;10.38;;;9.30;99.90;;;;;;5051249;28;20064;-49
2022/03/14 09:39:34;;;;;;;19.70;9.48;;;9.30;99.90;;;;;;5051487;28;20494;-49
2022/03/14 09:42:01;;;;;;;17.88;8.90;;;9.30;99.90;;;;;;5051527;28;20120;-49
2022/03/14 09:44:29;;;;;;;17.83;7.25;;;9.30;99.90;;;;;;5050868;28;20044;-51
2022/03/14 09:47:00;;;;;;;17.15;7.90;;;9.40;99.90;;;;;;5050928;28;20094;-52
2022/03/14 09:49:27;;;;;;;14.13;8.00;;;9.40;99.90;;;;;;5051098;28;20032;-49
2022/03/14 09:51:53;;;;;;;17.00;6.85;;;9.40;99.90;;;;;;5051178;28;20457;-50
2022/03/14 09:54:21;;;;;;;14.80;6.75;;;9.30;99.90;;;;;;5051142;28;20048;-52
2022/03/14 09:56:48;;;;;;;14.18;6.25;;;9.40;99.90;;;;;;5050926;28;20041;-53
2022/03/14 09:59:14;;;;;;;18.45;6.43;;;9.40;99.90;;;;;;5050627;28;20430;-53
2022/03/14 10:01:41;;;;;;;17.55;6.20;;;9.40;99.90;;;;;;5055134;28;20091;-53
2022/03/14 10:04:08;;;;;;;14.32;6.10;;;9.50;99.90;;;;;;5054460;28;20072;-50
2022/03/14 10:06:35;;;;;;;19.77;6.35;;;9.50;99.90;;;;;;5054786;28;20150;-50
2022/03/14 10:09:02;;;;;;;12.35;5.07;;;9.50;99.90;;;;;;5054836;28;20401;-52
2022/03/14 10:11:28;;;;;;;11.90;5.13;;;9.50;99.90;;;;;;5054758;28;20036;-52
2022/03/14 10:13:54;;;;;;;13.45;5.35;;;9.50;99.90;;;;;;5037005;28;20428;-52
2022/03/14 10:16:20;;;;;;;13.88;5.00;;;9.60;99.90;;;;;;5054739;28;20037;-52
2022/03/14 10:18:58;;;;;;;12.52;4.35;;;9.60;99.90;;;;;;5054412;28;20066;-53
2022/03/14 10:21:30;;;;;;;9.93;4.47;;;9.60;99.90;;;;;;5054741;28;20110;-51
2022/03/14 10:24:04;;;;;;;12.10;3.65;;;9.60;99.90;;;;;;5036695;28;20053;-53
2022/03/14 10:26:33;;;;;;;10.80;4.35;;;9.70;99.90;;;;;;5054104;28;20037;-53
2022/03/14 10:29:00;;;;;;;12.20;4.28;;;9.70;99.90;;;;;;5054341;28;20120;-51
2022/03/14 10:31:34;;;;;;;14.88;5.35;;;9.70;99.90;;;;;;5054423;28;20047;-53
2022/03/14 10:34:11;;;;;;;16.00;4.93;;;9.80;99.90;;;;;;5053985;28;20119;-55
2022/03/14 10:36:42;;;;;;;13.27;4.75;;;9.80;99.90;;;;;;5054231;28;20044;-55
2022/03/14 10:39:32;;;;;;;14.35;4.55;;;9.90;99.90;;;;;;5054111;28;20076;-53
2022/03/14 10:42:08;;;;;;;15.85;5.00;;;9.90;99.90;;;;;;5048700;28;20044;-52
2022/03/14 10:44:36;;;;;;;14.85;4.60;;;9.90;99.90;;;;;;5053980;28;20041;-53
2022/03/14 10:47:06;;;;;;;13.65;4.30;;;10.00;99.90;;;;;;5035857;28;20033;-54
2022/03/14 10:49:37;;;;;;;15.25;5.00;;;10.00;99.90;;;;;;5053692;28;20040;-53
2022/03/14 10:52:05;;;;;;;10.77;4.00;;;10.10;99.90;;;;;;5053842;28;20112;-52
2022/03/14 10:54:34;;;;;;;13.35;4.43;;;10.10;99.90;;;;;;5053947;28;20087;-54
2022/03/14 10:57:13;;;;;;;13.07;4.65;;;10.20;99.90;;;;;;5052582;28;20496;-53
2022/03/14 10:59:42;;;;;;;10.50;4.28;;;10.30;99.90;;;;;;5059130;28;20068;-53
2022/03/14 11:02:11;;;;;;;13.68;4.50;;;10.30;99.90;;;;;;5053612;28;20045;-53
2022/03/14 11:04:43;;;;;;;12.60;4.35;;;10.40;99.90;;;;;;5053681;28;20123;-53
2022/03/14 11:07:10;;;;;;;13.35;4.97;;;10.40;99.90;;;;;;5053463;28;20493;-53
2022/03/14 11:09:46;;;;;;;12.98;4.15;;;10.50;99.90;;;;;;5052590;28;20102;-53
2022/03/14 11:12:17;;;;;;;14.57;4.55;;;10.50;99.90;;;;;;5051502;28;20505;-50
2022/03/14 11:14:50;;;;;;;9.45;4.00;;;10.50;99.90;;;;;;5052381;28;20052;-53
2022/03/14 11:17:22;;;;;;;11.30;4.45;;;10.60;99.90;;;;;;5053062;28;20087;-54
2022/03/14 11:19:48;;;;;;;15.13;5.15;;;10.60;99.90;;;;;;5053600;28;20048;-54
2022/03/14 11:22:15;;;;;;;12.68;5.55;;;10.60;99.90;;;;;;5053628;28;20072;-50
2022/03/14 11:25:00;;;;;;;11.98;5.35;;;10.60;99.90;;;;;;5053171;28;20116;-49
2022/03/14 11:27:36;;;;;;;17.80;6.57;;;10.70;99.90;;;;;;5053455;28;20464;-54
2022/03/14 11:30:06;;;;;;;19.02;7.45;;;10.70;99.90;;;;;;5052799;28;20037;-53
2022/03/14 11:32:33;;;;;;;18.20;8.00;;;10.70;99.90;;;;;;5052080;28;20045;-54
2022/03/14 11:35:01;;;;;;;16.52;7.75;;;10.70;99.90;;;;;;5052995;28;20044;-53
2022/03/14 11:37:29;;;;;;;15.95;8.40;;;10.70;99.90;;;;;;5052975;28;20505;-54
2022/03/14 11:39:56;;;;;;;15.13;9.00;;;10.70;99.90;;;;;;5052982;28;20052;-54
2022/03/14 11:42:22;;;;;;;17.95;10.80;;;10.70;99.90;;;;;;5053163;28;20041;-55
2022/03/14 11:44:49;;;;;;;20.95;10.60;;;10.70;99.90;;;;;;5052716;28;20124;-51
2022/03/14 11:47:19;;;;;;;20.40;11.52;;;10.70;99.90;;;;;;5034972;28;20064;-50
2022/03/14 11:49:45;;;;;;;19.15;12.13;;;10.70;99.90;;;;;;5052574;28;20374;-53
2022/03/14 11:52:19;;;;;;;21.90;12.40;;;10.70;99.90;;;;;;5053020;28;20037;-54
2022/03/14 11:54:50;;;;;;;21.08;12.98;;;10.80;99.90;;;;;;5084082;28;20037;-51
2022/03/14 11:57:37;;;;;;;22.25;12.65;;;10.90;99.90;;;;;;5034975;28;20410;-51
2022/03/14 12:00:21;;;;;;;24.13;13.27;;;10.90;99.90;;;;;;5052203;28;20037;-53
2022/03/14 12:02:58;;;;;;;22.83;12.70;;;11.00;99.90;;;;;;5052918;28;20069;-53
2022/03/14 12:05:35;;;;;;;22.73;13.85;;;11.10;99.90;;;;;;5052675;28;20037;-50
2022/03/14 12:08:21;;;;;;;22.08;14.05;;;11.20;99.90;;;;;;5052550;28;20514;-53
2022/03/14 12:10:47;;;;;;;25.50;13.30;;;11.20;99.90;;;;;;5004252;28;20044;-51
2022/03/14 12:13:39;;;;;;;21.15;13.30;;;11.30;99.90;;;;;;5052439;28;20120;-53
2022/03/14 12:16:38;;;;;;;22.40;14.20;;;11.30;99.90;;;;;;5034687;28;20068;-55
2022/03/14 12:19:28;;;;;;;23.75;14.45;;;11.40;99.90;;;;;;5034544;28;20037;-53
2022/03/14 12:21:55;;;;;;;23.48;14.68;;;11.50;99.90;;;;;;5051452;28;20059;-54
2022/03/14 12:24:35;;;;;;;23.08;12.48;;;11.60;99.90;;;;;;5051423;28;20112;-50
2022/03/14 12:27:02;;;;;;;21.45;11.82;;;11.70;99.90;;;;;;5051737;28;20041;-53
2022/03/14 12:29:40;;;;;;;20.95;12.20;;;11.70;99.90;;;;;;5034505;28;20037;-50
2022/03/14 12:32:29;;;;;;;22.98;12.40;;;11.80;99.90;;;;;;5052422;28;20048;-51
2022/03/14 12:35:03;;;;;;;24.05;13.02;;;11.90;99.90;;;;;;5052025;28;20036;-50
2022/03/14 12:37:37;;;;;;;23.45;11.18;;;11.90;99.90;;;;;;5051763;28;20040;-50
2022/03/14 12:40:07;;;;;;;22.83;11.93;;;12.00;99.90;;;;;;5051163;28;20102;-51
2022/03/14 12:42:45;;;;;;;20.77;12.15;;;12.10;99.90;;;;;;5050644;28;20048;-51
2022/03/14 12:45:21;;;;;;;22.30;11.60;;;12.10;99.70;;;;;;5050574;28;20148;-50
2022/03/14 12:48:07;;;;;;;20.58;10.60;;;12.20;99.20;;;;;;5034013;28;20040;-50